sensor_id;sensor_type;location;lat;lon;timestamp;P1;durP1;ratioP1;P2;durP2;ratioP2
73729;SDS011;62036;48.128;16.458;2022-12-24T00:00:07;21.58;;;12.38;;
73729;SDS011;62036;48.128;16.458;2022-12-24T00:02:34;21.17;;;11.50;;
73729;SDS011;62036;48.128;16.458;2022-12-24T00:05:00;16.17;;;10.25;;
73729;SDS011;62036;48.128;16.458;2022-12-24T00:07:27;18.98;;;11.15;;
73729;SDS011;62036;48.128;16.458;2022-12-24T00:09:53;17.38;;;10.13;;
73729;SDS011;62036;48.128;16.458;2022-12-24T00:12:19;18.50;;;10.50;;
73729;SDS011;62036;48.128;16.458;2022-12-24T00:14:45;18.60;;;10.77;;
73729;SDS011;62036;48.128;16.458;2022-12-24T00:17:11;17.90;;;9.80;;
73729;SDS011;62036;48.128;16.458;2022-12-24T00:19:37;16.52;;;10.40;;
73729;SDS011;62036;48.128;16.458;2022-12-24T00:22:03;17.02;;;9.85;;
73729;SDS011;62036;48.128;16.458;2022-12-24T00:24:29;13.27;;;7.57;;
73729;SDS011;62036;48.128;16.458;2022-12-24T00:26:55;14.43;;;9.52;;
73729;SDS011;62036;48.128;16.458;2022-12-24T00:29:21;10.45;;;5.55;;
73729;SDS011;62036;48.128;16.458;2022-12-24T00:31:47;8.85;;;6.03;;
73729;SDS011;62036;48.128;16.458;2022-12-24T00:34:13;7.13;;;4.38;;
73729;SDS011;62036;48.128;16.458;2022-12-24T00:36:39;4.93;;;3.08;;
73729;SDS011;62036;48.128;16.458;2022-12-24T00:39:05;3.47;;;2.30;;
73729;SDS011;62036;48.128;16.458;2022-12-24T00:41:31;3.67;;;1.92;;
73729;SDS011;62036;48.128;16.458;2022-12-24T00:43:58;3.85;;;1.80;;
73729;SDS011;62036;48.128;16.458;2022-12-24T00:46:25;5.38;;;1.90;;
73729;SDS011;62036;48.128;16.458;2022-12-24T00:48:51;1.65;;;1.23;;
73729;SDS011;62036;48.128;16.458;2022-12-24T00:51:17;1.58;;;0.90;;
73729;SDS011;62036;48.128;16.458;2022-12-24T00:53:43;2.53;;;0.85;;
73729;SDS011;62036;48.128;16.458;2022-12-24T00:56:09;0.75;;;0.32;;
73729;SDS011;62036;48.128;16.458;2022-12-24T00:58:36;0.65;;;0.40;;
73729;SDS011;62036;48.128;16.458;2022-12-24T01:01:02;0.80;;;0.30;;
73729;SDS011;62036;48.128;16.458;2022-12-24T01:03:28;1.35;;;0.70;;
73729;SDS011;62036;48.128;16.458;2022-12-24T01:06:04;0.60;;;0.30;;
73729;SDS011;62036;48.128;16.458;2022-12-24T01:08:30;1.45;;;0.20;;
73729;SDS011;62036;48.128;16.458;2022-12-24T01:10:56;0.20;;;0.15;;
73729;SDS011;62036;48.128;16.458;2022-12-24T01:13:22;2.72;;;0.25;;
73729;SDS011;62036;48.128;16.458;2022-12-24T01:15:49;0.70;;;0.32;;
73729;SDS011;62036;48.128;16.458;2022-12-24T01:18:15;0.22;;;0.10;;
73729;SDS011;62036;48.128;16.458;2022-12-24T01:20:41;0.20;;;0.20;;
73729;SDS011;62036;48.128;16.458;2022-12-24T01:23:07;0.63;;;0.20;;
73729;SDS011;62036;48.128;16.458;2022-12-24T01:25:33;0.82;;;0.10;;
73729;SDS011;62036;48.128;16.458;2022-12-24T01:27:59;0.95;;;0.20;;
73729;SDS011;62036;48.128;16.458;2022-12-24T01:30:25;0.68;;;0.25;;
73729;SDS011;62036;48.128;16.458;2022-12-24T01:32:51;0.20;;;0.20;;
73729;SDS011;62036;48.128;16.458;2022-12-24T01:35:17;0.10;;;0.10;;
73729;SDS011;62036;48.128;16.458;2022-12-24T01:37:43;0.10;;;0.10;;
73729;SDS011;62036;48.128;16.458;2022-12-24T01:40:12;1.95;;;0.25;;
73729;SDS011;62036;48.128;16.458;2022-12-24T01:43:15;0.65;;;0.30;;
73729;SDS011;62036;48.128;16.458;2022-12-24T01:45:49;0.82;;;0.10;;
73729;SDS011;62036;48.128;16.458;2022-12-24T01:53:54;0.30;;;0.20;;
73729;SDS011;62036;48.128;16.458;2022-12-24T01:56:21;0.20;;;0.20;;
73729;SDS011;62036;48.128;16.458;2022-12-24T01:58:50;1.58;;;0.30;;
73729;SDS011;62036;48.128;16.458;2022-12-24T02:01:19;0.77;;;0.30;;
73729;SDS011;62036;48.128;16.458;2022-12-24T02:03:45;0.22;;;0.20;;
73729;SDS011;62036;48.128;16.458;2022-12-24T02:06:11;0.10;;;0.10;;
73729;SDS011;62036;48.128;16.458;2022-12-24T02:08:39;0.10;;;0.10;;
73729;SDS011;62036;48.128;16.458;2022-12-24T02:13:37;0.10;;;0.00;;
73729;SDS011;62036;48.128;16.458;2022-12-24T02:26:57;0.55;;;0.10;;
73729;SDS011;62036;48.128;16.458;2022-12-24T02:29:48;0.17;;;0.00;;
73729;SDS011;62036;48.128;16.458;2022-12-24T02:32:23;0.00;;;0.00;;
73729;SDS011;62036;48.128;16.458;2022-12-24T02:34:56;0.25;;;0.05;;
73729;SDS011;62036;48.128;16.458;2022-12-24T02:37:33;1.17;;;0.17;;
73729;SDS011;62036;48.128;16.458;2022-12-24T02:40:03;0.93;;;0.17;;
73729;SDS011;62036;48.128;16.458;2022-12-24T02:42:34;0.95;;;0.38;;
73729;SDS011;62036;48.128;16.458;2022-12-24T02:45:02;0.15;;;0.15;;
73729;SDS011;62036;48.128;16.458;2022-12-24T02:47:29;0.10;;;0.00;;
73729;SDS011;62036;48.128;16.458;2022-12-24T02:49:56;0.10;;;0.10;;
73729;SDS011;62036;48.128;16.458;2022-12-24T02:54:55;0.32;;;0.10;;
73729;SDS011;62036;48.128;16.458;2022-12-24T03:00:07;0.45;;;0.10;;
73729;SDS011;62036;48.128;16.458;2022-12-24T03:05:20;0.35;;;0.15;;
73729;SDS011;62036;48.128;16.458;2022-12-24T03:10:46;0.10;;;0.03;;
73729;SDS011;62036;48.128;16.458;2022-12-24T03:13:16;0.10;;;0.10;;
73729;SDS011;62036;48.128;16.458;2022-12-24T03:15:44;0.10;;;0.10;;
73729;SDS011;62036;48.128;16.458;2022-12-24T03:18:11;0.20;;;0.20;;
73729;SDS011;62036;48.128;16.458;2022-12-24T03:20:49;0.10;;;0.10;;
73729;SDS011;62036;48.128;16.458;2022-12-24T03:23:17;0.17;;;0.10;;
73729;SDS011;62036;48.128;16.458;2022-12-24T03:25:43;0.10;;;0.10;;
73729;SDS011;62036;48.128;16.458;2022-12-24T03:28:10;0.30;;;0.10;;
73729;SDS011;62036;48.128;16.458;2022-12-24T03:30:41;0.22;;;0.10;;
73729;SDS011;62036;48.128;16.458;2022-12-24T03:33:08;0.52;;;0.20;;
73729;SDS011;62036;48.128;16.458;2022-12-24T03:35:34;1.80;;;0.20;;
73729;SDS011;62036;48.128;16.458;2022-12-24T03:38:00;0.30;;;0.20;;
73729;SDS011;62036;48.128;16.458;2022-12-24T03:40:26;0.40;;;0.28;;
73729;SDS011;62036;48.128;16.458;2022-12-24T03:42:52;1.02;;;0.20;;
73729;SDS011;62036;48.128;16.458;2022-12-24T03:45:18;0.20;;;0.10;;
73729;SDS011;62036;48.128;16.458;2022-12-24T03:47:44;0.77;;;0.20;;
73729;SDS011;62036;48.128;16.458;2022-12-24T03:50:10;0.40;;;0.30;;
73729;SDS011;62036;48.128;16.458;2022-12-24T03:52:36;0.30;;;0.20;;
73729;SDS011;62036;48.128;16.458;2022-12-24T03:55:02;1.55;;;0.43;;
73729;SDS011;62036;48.128;16.458;2022-12-24T03:57:28;0.73;;;0.20;;
73729;SDS011;62036;48.128;16.458;2022-12-24T03:59:54;0.25;;;0.20;;
73729;SDS011;62036;48.128;16.458;2022-12-24T04:02:20;1.33;;;0.20;;
73729;SDS011;62036;48.128;16.458;2022-12-24T04:04:46;0.82;;;0.30;;
73729;SDS011;62036;48.128;16.458;2022-12-24T04:07:12;0.63;;;0.20;;
73729;SDS011;62036;48.128;16.458;2022-12-24T04:09:38;0.80;;;0.20;;
73729;SDS011;62036;48.128;16.458;2022-12-24T04:12:05;1.27;;;0.45;;
73729;SDS011;62036;48.128;16.458;2022-12-24T04:14:31;0.80;;;0.20;;
73729;SDS011;62036;48.128;16.458;2022-12-24T04:16:57;0.20;;;0.20;;
73729;SDS011;62036;48.128;16.458;2022-12-24T04:19:23;1.10;;;0.38;;
73729;SDS011;62036;48.128;16.458;2022-12-24T04:21:49;0.60;;;0.20;;
73729;SDS011;62036;48.128;16.458;2022-12-24T04:24:15;0.40;;;0.22;;
73729;SDS011;62036;48.128;16.458;2022-12-24T04:26:41;0.75;;;0.15;;
73729;SDS011;62036;48.128;16.458;2022-12-24T04:29:07;0.93;;;0.30;;
73729;SDS011;62036;48.128;16.458;2022-12-24T04:31:33;0.40;;;0.30;;
73729;SDS011;62036;48.128;16.458;2022-12-24T04:33:59;0.20;;;0.20;;
73729;SDS011;62036;48.128;16.458;2022-12-24T04:36:25;0.70;;;0.40;;
73729;SDS011;62036;48.128;16.458;2022-12-24T04:38:51;0.43;;;0.22;;
73729;SDS011;62036;48.128;16.458;2022-12-24T04:41:19;0.30;;;0.20;;
73729;SDS011;62036;48.128;16.458;2022-12-24T04:43:45;1.35;;;0.63;;
73729;SDS011;62036;48.128;16.458;2022-12-24T04:46:12;0.50;;;0.30;;
73729;SDS011;62036;48.128;16.458;2022-12-24T04:48:42;0.90;;;0.20;;
73729;SDS011;62036;48.128;16.458;2022-12-24T04:51:08;0.88;;;0.30;;
73729;SDS011;62036;48.128;16.458;2022-12-24T04:53:34;1.45;;;0.30;;
73729;SDS011;62036;48.128;16.458;2022-12-24T04:56:01;1.20;;;0.20;;
73729;SDS011;62036;48.128;16.458;2022-12-24T04:58:27;1.33;;;0.25;;
73729;SDS011;62036;48.128;16.458;2022-12-24T05:00:53;0.40;;;0.20;;
73729;SDS011;62036;48.128;16.458;2022-12-24T05:03:19;2.28;;;0.32;;
73729;SDS011;62036;48.128;16.458;2022-12-24T05:05:45;2.53;;;1.10;;
73729;SDS011;62036;48.128;16.458;2022-12-24T05:08:12;0.40;;;0.10;;
73729;SDS011;62036;48.128;16.458;2022-12-24T05:10:38;0.80;;;0.40;;
73729;SDS011;62036;48.128;16.458;2022-12-24T05:13:04;0.95;;;0.22;;
73729;SDS011;62036;48.128;16.458;2022-12-24T05:15:30;0.65;;;0.20;;
73729;SDS011;62036;48.128;16.458;2022-12-24T05:17:56;0.68;;;0.20;;
73729;SDS011;62036;48.128;16.458;2022-12-24T05:20:22;0.60;;;0.30;;
73729;SDS011;62036;48.128;16.458;2022-12-24T05:22:48;1.48;;;0.20;;
73729;SDS011;62036;48.128;16.458;2022-12-24T05:25:35;0.20;;;0.13;;
73729;SDS011;62036;48.128;16.458;2022-12-24T05:28:20;0.40;;;0.30;;
73729;SDS011;62036;48.128;16.458;2022-12-24T05:30:46;1.65;;;0.30;;
73729;SDS011;62036;48.128;16.458;2022-12-24T05:33:12;1.42;;;0.20;;
73729;SDS011;62036;48.128;16.458;2022-12-24T05:35:38;0.40;;;0.20;;
73729;SDS011;62036;48.128;16.458;2022-12-24T05:38:05;4.80;;;0.40;;
73729;SDS011;62036;48.128;16.458;2022-12-24T05:40:31;1.15;;;0.20;;
73729;SDS011;62036;48.128;16.458;2022-12-24T05:42:57;2.42;;;0.32;;
73729;SDS011;62036;48.128;16.458;2022-12-24T05:45:23;2.50;;;0.30;;
73729;SDS011;62036;48.128;16.458;2022-12-24T05:47:49;1.48;;;0.43;;
73729;SDS011;62036;48.128;16.458;2022-12-24T05:50:15;2.08;;;0.35;;
73729;SDS011;62036;48.128;16.458;2022-12-24T05:52:41;2.28;;;0.40;;
73729;SDS011;62036;48.128;16.458;2022-12-24T05:55:07;0.75;;;0.40;;
73729;SDS011;62036;48.128;16.458;2022-12-24T05:57:33;1.88;;;0.28;;
73729;SDS011;62036;48.128;16.458;2022-12-24T05:59:59;4.47;;;0.50;;
73729;SDS011;62036;48.128;16.458;2022-12-24T06:02:25;0.50;;;0.20;;
73729;SDS011;62036;48.128;16.458;2022-12-24T06:04:51;0.95;;;0.17;;
73729;SDS011;62036;48.128;16.458;2022-12-24T06:07:17;1.27;;;0.30;;
73729;SDS011;62036;48.128;16.458;2022-12-24T06:09:43;0.40;;;0.40;;
73729;SDS011;62036;48.128;16.458;2022-12-24T06:12:09;1.55;;;0.22;;
73729;SDS011;62036;48.128;16.458;2022-12-24T06:14:35;2.03;;;0.45;;
73729;SDS011;62036;48.128;16.458;2022-12-24T06:17:01;1.92;;;0.20;;
73729;SDS011;62036;48.128;16.458;2022-12-24T06:19:27;0.73;;;0.40;;
73729;SDS011;62036;48.128;16.458;2022-12-24T06:21:53;3.05;;;0.32;;
73729;SDS011;62036;48.128;16.458;2022-12-24T06:24:19;0.50;;;0.40;;
73729;SDS011;62036;48.128;16.458;2022-12-24T06:26:45;0.80;;;0.32;;
73729;SDS011;62036;48.128;16.458;2022-12-24T06:29:11;2.00;;;0.30;;
73729;SDS011;62036;48.128;16.458;2022-12-24T06:31:37;0.93;;;0.20;;
73729;SDS011;62036;48.128;16.458;2022-12-24T06:34:03;3.78;;;1.80;;
73729;SDS011;62036;48.128;16.458;2022-12-24T06:36:29;0.85;;;0.30;;
73729;SDS011;62036;48.128;16.458;2022-12-24T06:38:55;0.70;;;0.15;;
73729;SDS011;62036;48.128;16.458;2022-12-24T06:41:21;0.52;;;0.30;;
73729;SDS011;62036;48.128;16.458;2022-12-24T06:43:48;0.30;;;0.20;;
73729;SDS011;62036;48.128;16.458;2022-12-24T06:46:15;3.13;;;0.20;;
73729;SDS011;62036;48.128;16.458;2022-12-24T06:48:42;0.63;;;0.40;;
73729;SDS011;62036;48.128;16.458;2022-12-24T06:51:09;0.63;;;0.20;;
73729;SDS011;62036;48.128;16.458;2022-12-24T06:53:35;1.15;;;0.30;;
73729;SDS011;62036;48.128;16.458;2022-12-24T06:56:02;1.42;;;0.30;;
73729;SDS011;62036;48.128;16.458;2022-12-24T06:58:28;0.47;;;0.20;;
73729;SDS011;62036;48.128;16.458;2022-12-24T07:00:54;1.45;;;0.20;;
73729;SDS011;62036;48.128;16.458;2022-12-24T07:03:20;1.05;;;0.30;;
73729;SDS011;62036;48.128;16.458;2022-12-24T07:05:46;1.13;;;0.20;;
73729;SDS011;62036;48.128;16.458;2022-12-24T07:08:12;1.33;;;0.40;;
73729;SDS011;62036;48.128;16.458;2022-12-24T07:10:38;1.27;;;0.30;;
73729;SDS011;62036;48.128;16.458;2022-12-24T07:13:04;0.47;;;0.28;;
73729;SDS011;62036;48.128;16.458;2022-12-24T07:15:30;2.85;;;0.40;;
73729;SDS011;62036;48.128;16.458;2022-12-24T07:17:56;0.30;;;0.10;;
73729;SDS011;62036;48.128;16.458;2022-12-24T07:20:22;1.92;;;0.43;;
73729;SDS011;62036;48.128;16.458;2022-12-24T07:22:48;0.90;;;0.70;;
73729;SDS011;62036;48.128;16.458;2022-12-24T07:25:14;3.13;;;0.60;;
73729;SDS011;62036;48.128;16.458;2022-12-24T07:27:40;1.65;;;0.40;;
73729;SDS011;62036;48.128;16.458;2022-12-24T07:30:07;1.48;;;0.30;;
73729;SDS011;62036;48.128;16.458;2022-12-24T07:32:33;1.00;;;0.43;;
73729;SDS011;62036;48.128;16.458;2022-12-24T07:34:59;1.38;;;0.32;;
73729;SDS011;62036;48.128;16.458;2022-12-24T07:37:25;0.98;;;0.30;;
73729;SDS011;62036;48.128;16.458;2022-12-24T07:39:51;1.48;;;0.40;;
73729;SDS011;62036;48.128;16.458;2022-12-24T07:42:18;0.93;;;0.30;;
73729;SDS011;62036;48.128;16.458;2022-12-24T07:44:44;1.55;;;0.20;;
73729;SDS011;62036;48.128;16.458;2022-12-24T07:47:10;3.20;;;0.43;;
73729;SDS011;62036;48.128;16.458;2022-12-24T07:49:36;0.45;;;0.28;;
73729;SDS011;62036;48.128;16.458;2022-12-24T07:52:02;3.15;;;0.47;;
73729;SDS011;62036;48.128;16.458;2022-12-24T07:54:29;1.45;;;0.20;;
73729;SDS011;62036;48.128;16.458;2022-12-24T07:56:55;1.23;;;0.60;;
73729;SDS011;62036;48.128;16.458;2022-12-24T07:59:21;0.90;;;0.50;;
73729;SDS011;62036;48.128;16.458;2022-12-24T08:01:47;0.77;;;0.22;;
73729;SDS011;62036;48.128;16.458;2022-12-24T08:04:13;2.72;;;0.35;;
73729;SDS011;62036;48.128;16.458;2022-12-24T08:06:39;0.80;;;0.30;;
73729;SDS011;62036;48.128;16.458;2022-12-24T08:09:05;1.65;;;0.65;;
73729;SDS011;62036;48.128;16.458;2022-12-24T08:11:31;2.72;;;0.40;;
73729;SDS011;62036;48.128;16.458;2022-12-24T08:13:57;0.52;;;0.20;;
73729;SDS011;62036;48.128;16.458;2022-12-24T08:16:24;0.68;;;0.30;;
73729;SDS011;62036;48.128;16.458;2022-12-24T08:18:51;1.67;;;0.40;;
73729;SDS011;62036;48.128;16.458;2022-12-24T08:21:17;1.40;;;0.32;;
73729;SDS011;62036;48.128;16.458;2022-12-24T08:23:45;1.40;;;0.60;;
73729;SDS011;62036;48.128;16.458;2022-12-24T08:26:11;2.05;;;0.70;;
73729;SDS011;62036;48.128;16.458;2022-12-24T08:28:37;4.78;;;0.60;;
73729;SDS011;62036;48.128;16.458;2022-12-24T08:31:03;1.40;;;0.43;;
73729;SDS011;62036;48.128;16.458;2022-12-24T08:33:32;1.65;;;0.50;;
73729;SDS011;62036;48.128;16.458;2022-12-24T08:35:59;1.27;;;0.47;;
73729;SDS011;62036;48.128;16.458;2022-12-24T08:38:26;2.03;;;0.60;;
73729;SDS011;62036;48.128;16.458;2022-12-24T08:40:52;2.38;;;0.40;;
73729;SDS011;62036;48.128;16.458;2022-12-24T08:43:18;2.55;;;0.60;;
73729;SDS011;62036;48.128;16.458;2022-12-24T08:45:45;2.08;;;0.40;;
73729;SDS011;62036;48.128;16.458;2022-12-24T08:48:13;1.08;;;0.50;;
73729;SDS011;62036;48.128;16.458;2022-12-24T08:50:39;2.35;;;0.65;;
73729;SDS011;62036;48.128;16.458;2022-12-24T08:53:06;3.47;;;1.27;;
73729;SDS011;62036;48.128;16.458;2022-12-24T08:55:32;1.35;;;0.57;;
73729;SDS011;62036;48.128;16.458;2022-12-24T08:57:59;0.57;;;0.30;;
73729;SDS011;62036;48.128;16.458;2022-12-24T09:00:25;0.75;;;0.40;;
73729;SDS011;62036;48.128;16.458;2022-12-24T09:02:51;2.55;;;0.60;;
73729;SDS011;62036;48.128;16.458;2022-12-24T09:05:19;1.73;;;0.43;;
73729;SDS011;62036;48.128;16.458;2022-12-24T09:07:45;2.63;;;0.60;;
73729;SDS011;62036;48.128;16.458;2022-12-24T09:10:11;1.48;;;0.60;;
73729;SDS011;62036;48.128;16.458;2022-12-24T09:12:37;1.58;;;0.52;;
73729;SDS011;62036;48.128;16.458;2022-12-24T09:15:04;1.35;;;0.47;;
73729;SDS011;62036;48.128;16.458;2022-12-24T09:17:32;0.75;;;0.40;;
73729;SDS011;62036;48.128;16.458;2022-12-24T09:19:58;1.17;;;0.40;;
73729;SDS011;62036;48.128;16.458;2022-12-24T09:22:24;1.30;;;0.40;;
73729;SDS011;62036;48.128;16.458;2022-12-24T09:24:52;2.08;;;0.32;;
73729;SDS011;62036;48.128;16.458;2022-12-24T09:27:20;3.30;;;0.50;;
73729;SDS011;62036;48.128;16.458;2022-12-24T09:29:46;2.53;;;0.50;;
73729;SDS011;62036;48.128;16.458;2022-12-24T09:32:12;0.93;;;0.40;;
73729;SDS011;62036;48.128;16.458;2022-12-24T09:34:38;2.25;;;0.50;;
73729;SDS011;62036;48.128;16.458;2022-12-24T09:37:04;2.13;;;0.50;;
73729;SDS011;62036;48.128;16.458;2022-12-24T09:39:30;0.88;;;0.40;;
73729;SDS011;62036;48.128;16.458;2022-12-24T09:44:42;1.83;;;0.60;;
73729;SDS011;62036;48.128;16.458;2022-12-24T09:47:13;1.35;;;0.35;;
73729;SDS011;62036;48.128;16.458;2022-12-24T09:49:41;1.60;;;0.40;;
73729;SDS011;62036;48.128;16.458;2022-12-24T09:52:09;0.50;;;0.32;;
73729;SDS011;62036;48.128;16.458;2022-12-24T09:54:38;1.58;;;0.30;;
73729;SDS011;62036;48.128;16.458;2022-12-24T09:57:07;2.55;;;0.50;;
73729;SDS011;62036;48.128;16.458;2022-12-24T09:59:41;2.45;;;0.47;;
73729;SDS011;62036;48.128;16.458;2022-12-24T10:02:11;2.03;;;0.60;;
73729;SDS011;62036;48.128;16.458;2022-12-24T10:04:38;3.53;;;0.75;;
73729;SDS011;62036;48.128;16.458;2022-12-24T10:07:11;1.55;;;0.50;;
73729;SDS011;62036;48.128;16.458;2022-12-24T10:12:21;2.97;;;0.85;;
73729;SDS011;62036;48.128;16.458;2022-12-24T10:25:27;2.83;;;0.45;;
73729;SDS011;62036;48.128;16.458;2022-12-24T10:27:55;1.58;;;0.40;;
73729;SDS011;62036;48.128;16.458;2022-12-24T10:30:25;1.33;;;0.30;;
73729;SDS011;62036;48.128;16.458;2022-12-24T10:32:53;1.65;;;0.73;;
73729;SDS011;62036;48.128;16.458;2022-12-24T10:37:46;0.90;;;0.30;;
73729;SDS011;62036;48.128;16.458;2022-12-24T10:40:13;2.95;;;0.45;;
73729;SDS011;62036;48.128;16.458;2022-12-24T10:42:40;1.38;;;0.52;;
73729;SDS011;62036;48.128;16.458;2022-12-24T10:45:13;1.15;;;0.60;;
73729;SDS011;62036;48.128;16.458;2022-12-24T10:47:39;1.83;;;0.50;;
73729;SDS011;62036;48.128;16.458;2022-12-24T10:50:10;1.60;;;0.43;;
73729;SDS011;62036;48.128;16.458;2022-12-24T10:52:41;2.75;;;0.82;;
73729;SDS011;62036;48.128;16.458;2022-12-24T10:55:10;4.22;;;0.63;;
73729;SDS011;62036;48.128;16.458;2022-12-24T10:57:37;2.17;;;0.47;;
73729;SDS011;62036;48.128;16.458;2022-12-24T11:00:04;1.08;;;0.50;;
73729;SDS011;62036;48.128;16.458;2022-12-24T11:02:32;2.95;;;0.55;;
73729;SDS011;62036;48.128;16.458;2022-12-24T11:04:59;1.83;;;0.63;;
73729;SDS011;62036;48.128;16.458;2022-12-24T11:07:26;2.80;;;0.73;;
73729;SDS011;62036;48.128;16.458;2022-12-24T11:10:03;1.92;;;0.52;;
73729;SDS011;62036;48.128;16.458;2022-12-24T11:12:31;2.55;;;0.80;;
73729;SDS011;62036;48.128;16.458;2022-12-24T11:15:17;2.13;;;0.50;;
73729;SDS011;62036;48.128;16.458;2022-12-24T11:17:53;2.90;;;0.55;;
73729;SDS011;62036;48.128;16.458;2022-12-24T11:20:22;3.33;;;0.63;;
73729;SDS011;62036;48.128;16.458;2022-12-24T11:22:50;2.00;;;0.50;;
73729;SDS011;62036;48.128;16.458;2022-12-24T11:27:47;2.53;;;0.50;;
73729;SDS011;62036;48.128;16.458;2022-12-24T11:30:34;1.35;;;0.50;;
73729;SDS011;62036;48.128;16.458;2022-12-24T11:35:32;2.88;;;0.60;;
73729;SDS011;62036;48.128;16.458;2022-12-24T11:40:30;1.52;;;0.52;;
73729;SDS011;62036;48.128;16.458;2022-12-24T11:42:58;1.33;;;0.68;;
73729;SDS011;62036;48.128;16.458;2022-12-24T11:45:26;2.20;;;0.47;;
73729;SDS011;62036;48.128;16.458;2022-12-24T11:47:53;1.75;;;0.70;;
73729;SDS011;62036;48.128;16.458;2022-12-24T11:52:55;3.88;;;0.80;;
73729;SDS011;62036;48.128;16.458;2022-12-24T11:58:24;1.90;;;0.70;;
73729;SDS011;62036;48.128;16.458;2022-12-24T12:01:16;3.38;;;1.00;;
73729;SDS011;62036;48.128;16.458;2022-12-24T12:03:56;2.35;;;0.80;;
73729;SDS011;62036;48.128;16.458;2022-12-24T12:08:54;1.83;;;0.70;;
73729;SDS011;62036;48.128;16.458;2022-12-24T12:11:21;1.92;;;0.85;;
73729;SDS011;62036;48.128;16.458;2022-12-24T12:13:48;3.13;;;0.77;;
73729;SDS011;62036;48.128;16.458;2022-12-24T12:17:02;1.70;;;0.70;;
73729;SDS011;62036;48.128;16.458;2022-12-24T12:19:20;2.92;;;1.00;;
73729;SDS011;62036;48.128;16.458;2022-12-24T12:21:48;2.40;;;1.10;;
73729;SDS011;62036;48.128;16.458;2022-12-24T12:24:22;3.00;;;0.75;;
73729;SDS011;62036;48.128;16.458;2022-12-24T12:26:54;0.90;;;0.60;;
73729;SDS011;62036;48.128;16.458;2022-12-24T12:30:05;2.38;;;0.63;;
73729;SDS011;62036;48.128;16.458;2022-12-24T12:32:13;4.35;;;0.85;;
73729;SDS011;62036;48.128;16.458;2022-12-24T12:35:01;3.40;;;0.60;;
73729;SDS011;62036;48.128;16.458;2022-12-24T12:37:35;2.65;;;0.70;;
73729;SDS011;62036;48.128;16.458;2022-12-24T12:40:04;2.55;;;0.63;;
73729;SDS011;62036;48.128;16.458;2022-12-24T12:42:36;1.60;;;0.63;;
73729;SDS011;62036;48.128;16.458;2022-12-24T12:52:40;1.42;;;0.45;;
73729;SDS011;62036;48.128;16.458;2022-12-24T12:55:22;2.00;;;0.60;;
73729;SDS011;62036;48.128;16.458;2022-12-24T12:57:55;2.60;;;0.35;;
73729;SDS011;62036;48.128;16.458;2022-12-24T13:00:24;1.08;;;0.50;;
73729;SDS011;62036;48.128;16.458;2022-12-24T13:10:26;1.92;;;0.40;;
73729;SDS011;62036;48.128;16.458;2022-12-24T13:18:25;0.20;;;0.20;;
73729;SDS011;62036;48.128;16.458;2022-12-24T13:20:56;0.43;;;0.30;;
73729;SDS011;62036;48.128;16.458;2022-12-24T13:23:23;0.82;;;0.20;;
73729;SDS011;62036;48.128;16.458;2022-12-24T13:25:53;1.60;;;0.30;;
73729;SDS011;62036;48.128;16.458;2022-12-24T13:34:00;2.83;;;0.52;;
73729;SDS011;62036;48.128;16.458;2022-12-24T13:36:10;1.45;;;0.50;;
73729;SDS011;62036;48.128;16.458;2022-12-24T13:38:46;0.63;;;0.30;;
73729;SDS011;62036;48.128;16.458;2022-12-24T13:49:16;0.52;;;0.40;;
73729;SDS011;62036;48.128;16.458;2022-12-24T13:51:44;0.65;;;0.30;;
73729;SDS011;62036;48.128;16.458;2022-12-24T13:54:11;2.33;;;0.50;;
73729;SDS011;62036;48.128;16.458;2022-12-24T13:56:38;2.83;;;0.75;;
73729;SDS011;62036;48.128;16.458;2022-12-24T13:59:39;2.80;;;0.40;;
73729;SDS011;62036;48.128;16.458;2022-12-24T14:01:58;1.35;;;0.40;;
73729;SDS011;62036;48.128;16.458;2022-12-24T14:04:25;3.17;;;0.52;;
73729;SDS011;62036;48.128;16.458;2022-12-24T14:06:52;2.72;;;0.50;;
73729;SDS011;62036;48.128;16.458;2022-12-24T14:09:19;2.05;;;0.55;;
73729;SDS011;62036;48.128;16.458;2022-12-24T14:14:28;0.88;;;0.40;;
73729;SDS011;62036;48.128;16.458;2022-12-24T14:16:57;1.23;;;0.38;;
73729;SDS011;62036;48.128;16.458;2022-12-24T14:19:25;2.08;;;0.47;;
73729;SDS011;62036;48.128;16.458;2022-12-24T14:24:35;1.00;;;0.50;;
73729;SDS011;62036;48.128;16.458;2022-12-24T14:27:17;1.30;;;0.60;;
73729;SDS011;62036;48.128;16.458;2022-12-24T14:29:49;1.42;;;0.40;;
73729;SDS011;62036;48.128;16.458;2022-12-24T14:34:41;1.98;;;0.43;;
73729;SDS011;62036;48.128;16.458;2022-12-24T14:37:08;4.10;;;0.50;;
73729;SDS011;62036;48.128;16.458;2022-12-24T14:39:36;1.20;;;0.50;;
73729;SDS011;62036;48.128;16.458;2022-12-24T14:47:22;2.55;;;0.47;;
73729;SDS011;62036;48.128;16.458;2022-12-24T14:54:51;4.43;;;0.70;;
73729;SDS011;62036;48.128;16.458;2022-12-24T14:57:19;1.48;;;0.60;;
73729;SDS011;62036;48.128;16.458;2022-12-24T14:59:49;3.13;;;0.88;;
73729;SDS011;62036;48.128;16.458;2022-12-24T15:02:50;1.63;;;0.68;;
73729;SDS011;62036;48.128;16.458;2022-12-24T15:05:10;2.30;;;0.70;;
73729;SDS011;62036;48.128;16.458;2022-12-24T15:07:36;0.65;;;0.32;;
73729;SDS011;62036;48.128;16.458;2022-12-24T15:10:04;2.13;;;0.68;;
73729;SDS011;62036;48.128;16.458;2022-12-24T15:12:32;2.08;;;0.70;;
73729;SDS011;62036;48.128;16.458;2022-12-24T15:14:58;2.65;;;0.60;;
73729;SDS011;62036;48.128;16.458;2022-12-24T15:17:24;2.45;;;0.70;;
73729;SDS011;62036;48.128;16.458;2022-12-24T15:19:51;2.22;;;0.80;;
73729;SDS011;62036;48.128;16.458;2022-12-24T15:24:47;1.73;;;0.45;;
73729;SDS011;62036;48.128;16.458;2022-12-24T15:27:17;1.33;;;0.40;;
73729;SDS011;62036;48.128;16.458;2022-12-24T15:29:44;2.45;;;0.50;;
73729;SDS011;62036;48.128;16.458;2022-12-24T15:32:11;1.45;;;0.73;;
73729;SDS011;62036;48.128;16.458;2022-12-24T15:34:40;1.60;;;0.80;;
73729;SDS011;62036;48.128;16.458;2022-12-24T15:39:36;2.05;;;0.85;;
73729;SDS011;62036;48.128;16.458;2022-12-24T15:42:03;3.20;;;0.50;;
73729;SDS011;62036;48.128;16.458;2022-12-24T15:44:43;1.58;;;0.50;;
73729;SDS011;62036;48.128;16.458;2022-12-24T15:47:15;4.25;;;1.00;;
73729;SDS011;62036;48.128;16.458;2022-12-24T15:49:43;2.25;;;0.60;;
73729;SDS011;62036;48.128;16.458;2022-12-24T15:52:11;4.18;;;0.93;;
73729;SDS011;62036;48.128;16.458;2022-12-24T15:54:42;2.05;;;1.08;;
73729;SDS011;62036;48.128;16.458;2022-12-24T15:57:51;3.83;;;1.00;;
73729;SDS011;62036;48.128;16.458;2022-12-24T16:00:00;2.45;;;0.80;;
73729;SDS011;62036;48.128;16.458;2022-12-24T16:02:36;2.78;;;0.93;;
73729;SDS011;62036;48.128;16.458;2022-12-24T16:10:35;2.15;;;0.80;;
73729;SDS011;62036;48.128;16.458;2022-12-24T16:13:08;4.13;;;1.05;;
73729;SDS011;62036;48.128;16.458;2022-12-24T16:15:35;3.22;;;0.80;;
73729;SDS011;62036;48.128;16.458;2022-12-24T16:18:13;2.88;;;0.73;;
73729;SDS011;62036;48.128;16.458;2022-12-24T16:20:39;1.75;;;0.80;;
73729;SDS011;62036;48.128;16.458;2022-12-24T16:23:15;2.30;;;0.80;;
73729;SDS011;62036;48.128;16.458;2022-12-24T16:25:41;3.95;;;1.02;;
73729;SDS011;62036;48.128;16.458;2022-12-24T16:28:10;2.47;;;0.80;;
73729;SDS011;62036;48.128;16.458;2022-12-24T16:30:36;1.83;;;0.93;;
73729;SDS011;62036;48.128;16.458;2022-12-24T16:33:04;0.90;;;0.52;;
73729;SDS011;62036;48.128;16.458;2022-12-24T16:35:31;2.03;;;0.65;;
73729;SDS011;62036;48.128;16.458;2022-12-24T16:38:00;3.25;;;0.80;;
73729;SDS011;62036;48.128;16.458;2022-12-24T16:40:27;1.13;;;0.60;;
73729;SDS011;62036;48.128;16.458;2022-12-24T16:42:53;2.38;;;0.80;;
73729;SDS011;62036;48.128;16.458;2022-12-24T16:45:38;2.60;;;0.60;;